Time;durP1;ratioP1;P1;durP2;ratioP2;P2;SDS_P1;SDS_P2;PMS_P1;PMS_P2;Temp;Humidity;BMP_temperature;BMP_pressure;BME280_temperature;BME280_humidity;BME280_pressure;Samples;Min_cycle;Max_cycle;Signal;HPM_P1;HPM_P2
2024/04/10 00:01:16;;;;;;;10.73;8.68;;;;;;;31.09;78.88;100985.06;5426728;26;69045;-35
2024/04/10 00:03:47;;;;;;;9.70;8.30;;;;;;;31.12;79.68;100990.03;5403224;26;65014;-34
2024/04/10 00:06:18;;;;;;;9.40;8.40;;;;;;;31.14;80.01;100990.63;5407271;26;68527;-34
2024/04/10 00:08:49;;;;;;;14.40;8.45;;;;;;;31.15;81.99;100992.28;5423258;26;67271;-34
2024/04/10 00:11:22;;;;;;;9.38;8.40;;;;;;;31.21;80.01;101008.72;5425290;26;68623;-34
2024/04/10 00:13:54;;;;;;;13.38;8.20;;;;;;;31.26;81.24;101009.72;5403569;26;65362;-34
2024/04/10 00:16:25;;;;;;;8.63;7.68;;;;;;;31.25;82.71;101007.22;5416659;26;68176;-34
2024/04/10 00:18:55;;;;;;;10.63;8.75;;;;;;;31.32;81.87;101016.97;5410548;26;64317;-34
2024/04/10 00:21:32;;;;;;;13.93;9.07;;;;;;;31.30;82.70;101019.06;5428134;26;68676;-34
2024/04/10 00:24:03;;;;;;;14.48;8.93;;;;;;;31.35;83.67;101023.84;5413759;26;64813;-34
2024/04/10 00:26:33;;;;;;;21.50;8.98;;;;;;;31.41;82.47;101033.81;5395831;26;68914;-35
2024/04/10 00:29:10;;;;;;;12.88;8.80;;;;;;;31.41;83.70;101028.41;5413298;26;65217;-33
2024/04/10 00:31:41;;;;;;;13.70;9.13;;;;;;;31.39;84.18;101031.31;5405478;26;67987;-34
2024/04/10 00:34:12;;;;;;;13.25;9.55;;;;;;;31.42;83.00;101040.06;5413172;26;63966;-34
2024/04/10 00:36:43;;;;;;;13.30;9.10;;;;;;;31.44;84.92;101038.81;5407321;26;69027;-34
2024/04/10 00:39:15;;;;;;;23.83;10.00;;;;;;;31.48;83.66;101044.59;5395111;26;64240;-34
2024/04/10 00:41:46;;;;;;;20.77;8.93;;;;;;;31.52;84.64;101057.50;5412706;26;68965;-34
2024/04/10 00:44:18;;;;;;;12.77;8.68;;;;;;;31.52;82.99;101062.94;5405629;26;65330;-34
2024/04/10 00:46:50;;;;;;;12.55;8.63;;;;;;;31.55;84.22;101067.91;5395011;26;68841;-34
2024/04/10 00:49:21;;;;;;;11.13;8.73;;;;;;;31.57;80.62;101071.25;5399182;26;65462;-34
2024/04/10 00:51:52;;;;;;;12.20;8.27;;;;;;;31.65;80.46;101082.84;5400244;26;68685;-34
2024/04/10 00:54:24;;;;;;;9.00;8.13;;;;;;;31.71;79.89;101095.56;5393411;26;65774;-35
2024/04/10 00:56:55;;;;;;;16.00;8.98;;;;;;;31.75;79.98;101094.03;5405994;26;69041;-34
2024/04/10 00:59:25;;;;;;;11.52;8.07;;;;;;;31.77;79.47;101097.38;5396820;26;63866;-34
2024/04/10 01:01:58;;;;;;;9.00;8.05;;;;;;;31.78;79.36;101097.13;5389494;26;67609;-35
2024/04/10 01:04:29;;;;;;;9.02;7.53;;;;;;;31.81;77.96;101099.41;5404130;26;65104;-36
2024/04/10 01:07:00;;;;;;;9.75;7.93;;;;;;;31.72;78.11;101091.78;5407361;26;68672;-34
2024/04/10 01:09:30;;;;;;;10.70;8.43;;;;;;;31.84;78.58;101092.69;5388324;26;64057;-34
2024/04/10 01:12:01;;;;;;;7.90;7.20;;;;;;;31.88;78.05;101104.78;5391528;26;68499;-34
2024/04/10 01:14:32;;;;;;;11.57;8.25;;;;;;;31.86;78.01;101098.75;5397799;26;63840;-35
2024/04/10 01:17:03;;;;;;;10.32;8.10;;;;;;;31.84;77.89;101098.13;5402625;26;68738;-34
2024/04/10 01:19:35;;;;;;;8.65;7.78;;;;;;;31.88;78.44;101103.97;5391554;26;64510;-34
2024/04/10 01:22:05;;;;;;;9.23;7.97;;;;;;;31.90;78.51;101097.25;5390251;26;68096;-34
2024/04/10 01:24:36;;;;;;;10.45;8.35;;;;;;;31.90;76.78;101097.25;5402960;26;66487;-34
2024/04/10 01:27:07;;;;;;;9.23;8.13;;;;;;;31.92;77.11;101095.16;5405820;26;67885;-36
2024/04/10 01:29:38;;;;;;;12.52;7.03;;;;;;;31.96;77.54;101101.00;5418359;26;63767;-34
2024/04/10 01:32:09;;;;;;;9.02;8.27;;;;;;;31.97;78.11;101095.34;5409325;26;68960;-34
2024/04/10 01:34:40;;;;;;;9.15;8.23;;;;;;;31.98;77.94;101086.16;5401002;26;65238;-35
2024/04/10 01:37:10;;;;;;;10.18;7.75;;;;;;;32.01;77.92;101088.44;5392454;26;68785;-34
2024/04/10 01:39:41;;;;;;;8.27;7.50;;;;;;;32.05;76.16;101089.63;5417114;26;64808;-34
2024/04/10 01:42:11;;;;;;;9.43;7.60;;;;;;;32.06;76.54;101090.44;5393212;26;68975;-35
2024/04/10 01:44:42;;;;;;;9.45;8.15;;;;;;;32.11;76.81;101093.31;5378593;26;65883;-35
2024/04/10 01:47:13;;;;;;;9.82;8.02;;;;;;;32.13;76.46;101102.09;5410743;26;68673;-34
2024/04/10 01:49:44;;;;;;;11.07;7.90;;;;;;;32.18;75.69;101098.69;5416174;26;64368;-34
2024/04/10 01:52:15;;;;;;;8.48;7.68;;;;;;;32.20;75.63;101096.59;5389718;26;68170;-34
2024/04/10 01:54:46;;;;;;;8.45;7.47;;;;;;;32.24;75.42;101103.25;5388645;26;65654;-34
2024/04/10 01:57:17;;;;;;;8.90;8.07;;;;;;;32.25;75.74;101105.72;5407091;26;68656;-34
2024/04/10 01:59:49;;;;;;;10.63;8.60;;;;;;;32.28;76.76;101104.44;5389996;26;66369;-35
2024/04/10 02:02:20;;;;;;;10.95;7.93;;;;;;;32.32;75.18;101105.66;5390267;26;68405;-35
2024/04/10 02:04:51;;;;;;;9.55;8.25;;;;;;;32.34;75.68;101119.81;5405684;26;64053;-35
2024/04/10 02:07:21;;;;;;;9.88;8.88;;;;;;;32.37;76.58;101108.50;5404068;26;67819;-34
2024/04/10 02:09:52;;;;;;;9.63;8.57;;;;;;;32.40;75.66;101113.50;5406899;26;64494;-35
2024/04/10 02:12:23;;;;;;;8.65;8.02;;;;;;;32.43;74.60;101118.50;5387361;26;68021;-34
2024/04/10 02:14:57;;;;;;;10.17;8.23;;;;;;;32.45;74.65;101107.38;5389956;26;65762;-35
2024/04/10 02:17:30;;;;;;;10.25;8.57;;;;;;;32.47;75.76;101114.28;5405299;26;68741;-35
2024/04/10 02:20:01;;;;;;;9.13;8.52;;;;;;;32.52;74.54;101113.63;5389448;26;65925;-34
2024/04/10 02:22:33;;;;;;;10.60;9.63;;;;;;;32.53;75.29;101112.56;5390762;26;69043;-34
2024/04/10 02:25:04;;;;;;;10.85;8.80;;;;;;;32.55;75.09;101104.19;5393299;26;64216;-35
2024/04/10 02:27:34;;;;;;;9.77;9.07;;;;;;;32.57;75.05;101102.06;5410990;26;68554;-35
2024/04/10 02:30:06;;;;;;;9.95;8.98;;;;;;;32.62;75.73;101102.22;5402279;26;64919;-35
2024/04/10 02:32:37;;;;;;;13.07;8.60;;;;;;;32.65;74.44;101105.31;5395156;26;68016;-35
2024/04/10 02:35:08;;;;;;;10.17;9.27;;;;;;;32.69;74.20;101100.25;5409075;26;64989;-34
2024/04/10 02:37:39;;;;;;;10.60;9.55;;;;;;;32.72;75.04;101095.19;5399227;26;68696;-34
2024/04/10 02:40:10;;;;;;;15.43;9.23;;;;;;;32.76;75.24;101090.13;5392344;26;64555;-35
2024/04/10 02:42:51;;;;;;;9.75;9.00;;;;;;;32.78;74.11;101092.63;5390583;26;67872;-35
2024/04/10 02:45:22;;;;;;;10.37;9.50;;;;;;;32.78;74.47;101088.00;5391858;26;65242;-35
2024/04/10 02:47:53;;;;;;;9.50;8.45;;;;;;;32.84;74.48;101081.66;5403392;26;69697;-35
2024/04/10 02:50:24;;;;;;;16.05;9.07;;;;;;;32.87;74.14;101086.63;5407901;26;65564;-35
2024/04/10 02:52:54;;;;;;;11.18;9.15;;;;;;;32.90;74.15;101080.75;5396629;26;67102;-35
2024/04/10 02:55:27;;;;;;;10.32;9.07;;;;;;;32.94;74.43;101095.53;5393716;26;65780;-35
2024/04/10 02:57:58;;;;;;;12.17;9.20;;;;;;;32.97;73.56;101096.97;5404904;26;69284;-34
2024/04/10 03:00:30;;;;;;;11.02;9.93;;;;;;;33.01;73.44;101091.94;5406002;26;64944;-34
2024/04/10 03:03:01;;;;;;;9.98;8.95;;;;;;;33.03;73.36;101096.06;5405786;26;67887;-34
2024/04/10 03:05:32;;;;;;;9.52;8.73;;;;;;;33.06;73.43;101083.91;5390379;26;65487;-35
2024/04/10 03:08:05;;;;;;;10.82;9.90;;;;;;;33.07;73.66;101091.00;5397342;26;68481;-34
2024/04/10 03:10:36;;;;;;;10.13;9.27;;;;;;;33.13;73.13;101092.81;5391616;26;65561;-34
2024/04/10 03:13:10;;;;;;;10.83;9.77;;;;;;;33.17;74.02;101102.16;5391793;26;68654;-35
2024/04/10 03:15:44;;;;;;;9.55;8.63;;;;;;;33.20;72.96;101100.88;5401660;26;64688;-34
2024/04/10 03:18:15;;;;;;;10.80;9.63;;;;;;;33.23;74.14;101095.78;5410920;26;68804;-34
2024/04/10 03:20:46;;;;;;;13.85;10.15;;;;;;;33.23;74.38;101084.09;5388496;26;64188;-36
2024/04/10 03:23:17;;;;;;;10.80;10.00;;;;;;;33.29;72.78;101084.00;5392031;26;69083;-34
2024/04/10 03:25:48;;;;;;;10.13;9.30;;;;;;;33.32;74.01;101091.69;5366059;26;64272;-34
2024/04/10 03:28:19;;;;;;;11.13;10.07;;;;;;;33.33;72.93;101079.75;5379639;26;69194;-34
2024/04/10 03:30:52;;;;;;;11.30;10.20;;;;;;;33.35;73.29;101071.38;5382931;26;66119;-35
2024/04/10 03:33:26;;;;;;;11.80;9.55;;;;;;;33.42;73.01;101076.69;5382415;26;68999;-35
2024/04/10 03:35:58;;;;;;;11.50;10.05;;;;;;;33.46;73.24;101067.84;5379788;26;65877;-35
2024/04/10 03:38:28;;;;;;;13.70;11.07;;;;;;;33.44;73.13;101069.16;5383346;26;69005;-34
2024/04/10 03:40:59;;;;;;;11.60;10.40;;;;;;;33.51;72.91;101069.84;5381198;26;65463;-35
2024/04/10 03:43:31;;;;;;;11.10;10.30;;;;;;;33.55;72.91;101071.09;5397623;26;69295;-34
2024/04/10 03:46:06;;;;;;;10.55;9.48;;;;;;;33.57;72.90;101068.94;5380702;26;65470;-35
2024/04/10 03:48:38;;;;;;;12.02;10.32;;;;;;;33.61;73.22;101063.88;5381735;26;68627;-35
2024/04/10 03:51:09;;;;;;;10.35;9.55;;;;;;;33.63;72.42;101062.59;5380581;26;64809;-35
2024/04/10 03:53:40;;;;;;;13.05;10.63;;;;;;;33.68;73.01;101059.16;5382238;26;68060;-35
2024/04/10 03:56:11;;;;;;;16.50;10.40;;;;;;;33.71;72.49;101058.66;5381644;26;65180;-35
2024/04/10 03:58:42;;;;;;;10.27;9.40;;;;;;;33.72;72.72;101047.56;5373789;26;68999;-35
2024/04/10 04:01:19;;;;;;;11.13;10.13;;;;;;;33.76;73.28;101028.88;5382284;26;64538;-35
2024/04/10 04:03:50;;;;;;;12.43;10.38;;;;;;;33.80;73.26;101041.78;5376793;26;68223;-35
2024/04/10 04:06:21;;;;;;;10.60;9.77;;;;;;;33.79;73.25;101040.13;5383043;26;66167;-35
2024/04/10 04:08:52;;;;;;;11.40;10.33;;;;;;;33.86;73.02;101039.19;5384186;26;69286;-35
2024/04/10 04:11:24;;;;;;;17.38;10.65;;;;;;;33.84;72.51;101030.41;5383818;26;65211;-35
2024/04/10 04:13:55;;;;;;;10.98;9.75;;;;;;;33.90;71.99;101026.72;5385985;26;69100;-35
2024/04/10 04:16:26;;;;;;;;;;;;;;;33.88;72.18;101027.00;5396149;26;65345;-35
2024/04/10 04:18:57;;;;;;;11.60;10.68;;;;;;;33.98;72.64;101016.31;5395348;26;68102;-35
2024/04/10 04:21:31;;;;;;;11.60;10.77;;;;;;;33.99;71.84;101009.81;5383832;26;64767;-35
2024/04/10 04:24:03;;;;;;;11.93;10.88;;;;;;;34.00;72.80;101002.47;5384269;26;67566;-35
2024/04/10 04:26:34;;;;;;;11.38;10.57;;;;;;;34.04;72.82;101003.63;5384958;26;64790;-35
2024/04/10 04:29:05;;;;;;;12.27;10.80;;;;;;;34.09;71.96;101006.50;5385583;26;70181;-35
2024/04/10 04:31:36;;;;;;;12.93;11.13;;;;;;;34.11;72.32;100998.94;5381685;26;65975;-35
2024/04/10 04:34:12;;;;;;;12.98;10.07;;;;;;;34.14;72.40;101000.34;5386136;26;68599;-35
2024/04/10 04:36:45;;;;;;;12.25;11.15;;;;;;;34.17;72.04;100987.09;5385850;26;64626;-34
2024/04/10 04:39:15;;;;;;;;;;;;;;;34.16;72.25;100979.19;5371952;26;68396;-35
2024/04/10 04:41:46;;;;;;;11.52;10.45;;;;;;;34.26;72.17;100980.19;5386324;26;64028;-35
2024/04/10 04:44:19;;;;;;;12.50;11.18;;;;;;;34.29;71.29;100976.16;5385341;26;69027;-35
2024/04/10 04:46:51;;;;;;;;;;;;;;;34.25;70.96;100975.00;5385240;26;65353;-35
2024/04/10 04:49:23;;;;;;;11.77;10.88;;;;;;;34.31;71.19;100967.75;5392665;26;67547;-35
2024/04/10 04:51:54;;;;;;;12.48;11.52;;;;;;;34.38;71.39;100955.66;5385594;26;65820;-35
2024/04/10 04:54:25;;;;;;;16.40;12.27;;;;;;;34.37;71.51;100939.56;5385205;26;68372;-34
2024/04/10 04:56:56;;;;;;;12.75;11.60;;;;;;;34.42;71.18;100940.47;5385714;26;65058;-35
2024/04/10 04:59:27;;;;;;;14.33;12.33;;;;;;;34.45;71.55;100941.88;5380804;26;68683;-35
2024/04/10 05:01:58;;;;;;;12.77;11.90;;;;;;;34.50;70.68;100924.81;5385522;26;65823;-35
2024/04/10 05:07:22;;;;;;;13.77;12.38;;;;;;;34.57;70.59;100915.44;5385447;26;64106;-35
2024/04/10 05:09:56;;;;;;;13.82;12.82;;;;;;;34.62;71.00;100912.81;5383819;26;67988;-35
2024/04/10 05:12:26;;;;;;;14.75;13.32;;;;;;;34.67;70.86;100914.81;5359509;26;66064;-34
2024/04/10 05:14:59;;;;;;;15.40;13.83;;;;;;;34.68;71.34;100911.81;5383762;26;67961;-35
2024/04/10 05:17:30;;;;;;;17.42;13.38;;;;;;;34.69;70.58;100908.06;5384402;26;65636;-35
2024/04/10 05:20:10;;;;;;;14.23;13.07;;;;;;;34.68;70.48;100911.00;5384560;26;67721;-34
2024/04/10 05:22:46;;;;;;;14.77;13.70;;;;;;;34.76;70.42;100912.50;5385663;26;64061;-35
2024/04/10 05:25:17;;;;;;;14.73;13.68;;;;;;;34.78;70.85;100910.38;5378985;26;69700;-38
2024/04/10 05:27:49;;;;;;;14.50;13.13;;;;;;;34.80;71.13;100897.31;5381366;26;65449;-33
2024/04/10 05:30:20;;;;;;;13.65;12.75;;;;;;;34.85;70.40;100894.66;5380175;26;69256;-35
2024/04/10 05:32:51;;;;;;;14.65;13.55;;;;;;;34.89;70.67;100890.41;5374017;26;66463;-34
2024/04/10 05:35:22;;;;;;;14.27;12.95;;;;;;;34.93;70.33;100880.63;5384361;26;68228;-35
2024/04/10 05:37:54;;;;;;;15.20;13.73;;;;;;;34.95;70.20;100872.22;5383945;26;63812;-34
2024/04/10 05:40:25;;;;;;;14.40;13.40;;;;;;;34.98;70.25;100872.53;5384719;26;69486;-34
2024/04/10 05:42:56;;;;;;;14.68;13.32;;;;;;;35.01;69.83;100869.31;5384668;26;64881;-35
2024/04/10 05:45:27;;;;;;;14.38;13.00;;;;;;;35.02;69.86;100884.63;5381365;26;69736;-34
2024/04/10 05:47:58;;;;;;;14.73;13.55;;;;;;;35.06;70.39;100869.44;5384468;26;64802;-34
2024/04/10 05:50:30;;;;;;;15.30;14.10;;;;;;;35.10;69.99;100867.88;5384222;26;68700;-35
2024/04/10 05:53:01;;;;;;;13.98;12.88;;;;;;;35.14;69.64;100868.19;5381940;26;64995;-35
2024/04/10 05:55:34;;;;;;;14.23;13.07;;;;;;;35.18;69.86;100861.16;5381093;26;67785;-35
2024/04/10 05:58:08;;;;;;;14.07;13.20;;;;;;;35.23;70.19;100853.03;5394302;26;64623;-35
2024/04/10 06:00:39;;;;;;;14.43;13.30;;;;;;;35.24;70.01;100842.94;5382237;26;68645;-35
2024/04/10 06:03:13;;;;;;;14.90;13.60;;;;;;;35.27;69.81;100850.63;5384808;26;64557;-36
2024/04/10 06:05:44;;;;;;;15.30;13.63;;;;;;;35.32;69.32;100839.78;5381424;26;68265;-34
2024/04/10 06:08:15;;;;;;;13.85;13.00;;;;;;;35.34;69.76;100834.94;5383649;26;65170;-35
2024/04/10 06:10:51;;;;;;;15.17;14.03;;;;;;;35.34;68.72;100838.47;5361874;26;67989;-35
2024/04/10 06:13:22;;;;;;;13.68;12.68;;;;;;;35.42;69.54;100845.41;5381782;26;64679;-36
2024/04/10 06:16:00;;;;;;;15.50;14.17;;;;;;;35.45;68.89;100838.63;5384130;26;68815;-34
2024/04/10 06:18:32;;;;;;;14.43;13.25;;;;;;;35.49;69.42;100843.28;5383917;26;64866;-35
2024/04/10 06:21:04;;;;;;;14.85;13.65;;;;;;;35.34;69.42;100791.28;5384265;26;69176;-35
2024/04/10 06:23:35;;;;;;;15.20;13.90;;;;;;;35.58;69.40;100817.28;5385437;26;65023;-35
2024/04/10 06:26:06;;;;;;;14.93;13.75;;;;;;;35.60;69.50;100818.91;5383523;26;68934;-35
2024/04/10 06:28:38;;;;;;;14.88;13.70;;;;;;;35.65;68.70;100827.16;5362694;26;65855;-35
2024/04/10 06:31:09;;;;;;;14.98;13.75;;;;;;;35.67;68.90;100819.56;5388763;26;69076;-37
2024/04/10 06:33:40;;;;;;;14.38;13.43;;;;;;;35.71;69.36;100826.13;5402115;26;64900;-35
2024/04/10 06:36:11;;;;;;;14.90;13.63;;;;;;;35.74;68.69;100820.16;5382368;26;68089;-35
2024/04/10 06:38:42;;;;;;;15.70;14.40;;;;;;;35.78;68.50;100826.78;5384437;26;66399;-34
2024/04/10 06:41:15;;;;;;;14.40;13.38;;;;;;;35.82;68.90;100822.44;5381876;26;69261;-35
2024/04/10 06:43:46;;;;;;;15.27;14.27;;;;;;;35.83;68.66;100810.47;5383305;26;66267;-35
2024/04/10 06:46:17;;;;;;;14.93;13.77;;;;;;;35.89;68.88;100817.63;5382142;26;68624;-34
2024/04/10 06:48:48;;;;;;;14.85;13.77;;;;;;;35.93;68.34;100818.75;5382523;26;64081;-35
2024/04/10 06:51:20;;;;;;;15.27;14.07;;;;;;;35.99;69.02;100814.16;5385254;26;68798;-35
2024/04/10 06:53:51;;;;;;;15.30;13.98;;;;;;;36.00;68.62;100796.72;5385387;26;65538;-34
2024/04/10 06:56:23;;;;;;;13.68;12.80;;;;;;;36.06;68.88;100805.81;5381566;26;69235;-35
2024/04/10 06:58:54;;;;;;;14.50;13.50;;;;;;;36.09;68.27;100803.41;5385563;26;64032;-35
2024/04/10 07:01:25;;;;;;;14.20;12.98;;;;;;;36.10;68.38;100796.03;5382206;26;67483;-35
2024/04/10 07:03:56;;;;;;;14.63;13.53;;;;;;;36.17;68.40;100796.66;5379461;26;65226;-35
2024/04/10 07:06:27;;;;;;;13.75;12.73;;;;;;;36.23;68.06;100798.34;5395300;26;68496;-35
2024/04/10 07:08:58;;;;;;;14.70;13.70;;;;;;;36.26;68.33;100797.81;5392923;26;66261;-34
2024/04/10 07:11:31;;;;;;;15.17;14.10;;;;;;;36.26;68.34;100797.00;5384164;26;69097;-36
2024/04/10 07:14:06;;;;;;;14.38;13.45;;;;;;;36.33;68.68;100795.72;5383700;26;64069;-35
2024/04/10 07:16:37;;;;;;;;;;;;;;;36.29;67.01;100791.00;5382349;26;68458;-35
2024/04/10 07:19:08;;;;;;;13.90;12.90;;;;;;;36.45;67.98;100784.59;5382423;26;65054;-35
2024/04/10 07:21:39;;;;;;;14.10;13.07;;;;;;;36.50;67.59;100781.06;5384181;26;68369;-35
2024/04/10 07:24:11;;;;;;;13.95;13.05;;;;;;;36.53;67.81;100784.16;5381396;26;64969;-35
2024/04/10 07:26:42;;;;;;;14.50;13.17;;;;;;;36.59;67.45;100776.81;5384100;26;69150;-35
2024/04/10 07:29:13;;;;;;;13.70;12.82;;;;;;;36.60;67.71;100767.53;5376028;26;63671;-35
2024/04/10 07:31:48;;;;;;;15.52;13.60;;;;;;;36.67;67.38;100779.06;5382983;26;68676;-36
2024/04/10 07:34:20;;;;;;;13.65;12.70;;;;;;;36.72;67.76;100776.38;5384508;26;65046;-35
2024/04/10 07:36:51;;;;;;;13.77;12.88;;;;;;;36.79;67.37;100787.06;5380117;26;68625;-34
2024/04/10 07:39:22;;;;;;;13.82;12.98;;;;;;;36.83;67.69;100785.44;5393602;26;64029;-35
2024/04/10 07:41:53;;;;;;;13.73;12.80;;;;;;;36.87;67.15;100781.91;5393037;26;67931;-35
2024/04/10 07:44:24;;;;;;;13.82;12.57;;;;;;;36.94;67.02;100778.13;5381966;26;64123;-36
2024/04/10 07:46:56;;;;;;;14.03;13.00;;;;;;;36.96;66.81;100781.41;5384944;26;68398;-35
2024/04/10 07:49:28;;;;;;;13.80;12.52;;;;;;;37.03;66.86;100771.13;5386985;26;65183;-34
2024/04/10 07:52:00;;;;;;;14.15;13.05;;;;;;;37.07;66.85;100772.22;5360932;26;67837;-35
2024/04/10 07:54:33;;;;;;;12.90;11.90;;;;;;;37.13;67.10;100773.88;5383393;26;64504;-34
2024/04/10 07:57:04;;;;;;;12.75;11.85;;;;;;;37.17;66.56;100769.53;5386690;26;69485;-36
2024/04/10 07:59:36;;;;;;;13.38;12.32;;;;;;;37.20;66.70;100771.75;5386077;26;64585;-34
2024/04/10 08:02:07;;;;;;;12.75;11.85;;;;;;;37.24;66.46;100770.09;5383963;26;69346;-36
2024/04/10 08:04:38;;;;;;;12.93;11.98;;;;;;;37.28;67.00;100765.75;5383852;26;64240;-36
2024/04/10 08:07:09;;;;;;;12.80;11.93;;;;;;;37.30;66.91;100760.81;5368297;26;67499;-36
2024/04/10 08:09:41;;;;;;;13.18;12.02;;;;;;;37.34;66.80;100753.75;5386832;26;65056;-34
2024/04/10 08:12:18;;;;;;;11.70;10.90;;;;;;;37.37;66.46;100748.84;5383624;26;67705;-34
2024/04/10 08:14:52;;;;;;;12.27;11.35;;;;;;;37.43;66.03;100747.75;5392921;26;65433;-35
2024/04/10 08:17:25;;;;;;;13.05;11.90;;;;;;;37.44;66.04;100738.44;5355743;26;67829;-34
2024/04/10 08:19:57;;;;;;;12.52;11.50;;;;;;;37.47;66.42;100735.16;5385977;26;65497;-35
2024/04/10 08:22:32;;;;;;;12.10;11.40;;;;;;;37.47;66.56;100726.97;5380019;26;67983;-35
2024/04/10 08:25:03;;;;;;;11.60;10.90;;;;;;;37.51;65.56;100731.66;5382843;26;65278;-35
2024/04/10 08:27:34;;;;;;;12.05;11.02;;;;;;;37.51;65.96;100722.63;5374765;26;68702;-35
2024/04/10 08:30:06;;;;;;;11.85;11.05;;;;;;;37.52;67.04;100724.28;5384427;26;65064;-35
2024/04/10 08:32:37;;;;;;;11.65;10.88;;;;;;;37.59;65.98;100721.28;5381665;26;68291;-35
2024/04/10 08:35:10;;;;;;;12.10;11.07;;;;;;;37.60;66.33;100721.00;5380125;26;64288;-36
2024/04/10 08:37:41;;;;;;;10.68;10.07;;;;;;;37.62;66.50;100724.31;5384495;26;68467;-35
2024/04/10 08:43:35;;;;;;;10.75;9.88;;;;;;;37.49;66.01;100709.22;5371041;26;69724;-35
2024/04/10 08:46:08;;;;;;;10.57;9.95;;;;;;;37.55;65.28;100716.34;5384312;26;64961;-35
2024/04/10 08:48:43;;;;;;;11.63;10.10;;;;;;;37.52;65.46;100696.91;5385600;26;67984;-36
2024/04/10 08:51:35;;;;;;;11.13;10.27;;;;;;;37.49;65.43;100702.94;5384512;26;65557;-36
2024/04/10 08:54:08;;;;;;;10.80;10.02;;;;;;;37.60;65.87;100709.25;5380061;26;68042;-34
2024/04/10 08:56:39;;;;;;;10.80;10.20;;;;;;;37.75;66.54;100729.25;5384457;26;65054;-35
2024/04/10 08:59:10;;;;;;;10.77;10.18;;;;;;;37.73;66.07;100720.50;5382786;26;69948;-36
2024/04/10 09:01:43;;;;;;;9.75;9.25;;;;;;;37.78;65.90;100722.44;5379342;26;65916;-36
2024/04/10 09:04:22;;;;;;;11.27;10.23;;;;;;;37.79;66.43;100730.34;5383810;26;68811;-35
2024/04/10 09:07:03;;;;;;;11.00;10.25;;;;;;;37.70;65.17;100712.81;5374694;26;65064;-35
2024/04/10 09:09:35;;;;;;;10.82;10.05;;;;;;;37.81;66.47;100726.50;5384401;26;68730;-36
2024/04/10 09:12:06;;;;;;;10.43;9.48;;;;;;;37.79;65.91;100719.41;5380886;26;63931;-35
2024/04/10 09:14:36;;;;;;;;;;;;;;;37.76;65.28;100714.47;5380234;26;68461;-35
2024/04/10 09:17:09;;;;;;;10.48;9.57;;;;;;;37.86;65.79;100712.84;5383052;26;65244;-35
2024/04/10 09:19:42;;;;;;;12.27;10.63;;;;;;;37.85;66.57;100711.19;5378351;26;68080;-35
2024/04/10 09:22:17;;;;;;;14.30;11.77;;;;;;;37.72;66.46;100716.13;5383796;26;64819;-35
2024/04/10 09:24:48;;;;;;;16.08;12.07;;;;;;;37.67;66.71;100720.75;5387487;26;68892;-35
2024/04/10 09:27:19;;;;;;;13.98;12.70;;;;;;;37.66;66.47;100719.91;5363330;26;65338;-36
2024/04/10 09:29:59;;;;;;;13.45;12.27;;;;;;;37.37;66.52;100694.13;5384336;26;68657;-34
2024/04/10 09:32:36;;;;;;;13.20;11.90;;;;;;;37.32;66.74;100703.94;5366701;26;64858;-35
2024/04/10 09:35:09;;;;;;;22.65;14.18;;;;;;;37.45;65.44;100716.31;5384272;26;67976;-34
2024/04/10 09:37:41;;;;;;;22.33;14.23;;;;;;;37.48;65.75;100728.63;5383388;26;64330;-35
2024/04/10 09:40:24;;;;;;;17.25;14.00;;;;;;;37.34;65.39;100704.50;5388483;26;69226;-35
2024/04/10 09:43:03;;;;;;;19.45;13.75;;;;;;;37.45;66.69;100718.22;5391091;26;63914;-34
2024/04/10 09:45:35;;;;;;;16.00;13.27;;;;;;;37.43;66.99;100720.41;5370267;26;68864;-34
2024/04/10 09:48:11;;;;;;;16.58;14.10;;;;;;;37.22;66.28;100686.66;5376968;26;65298;-35
2024/04/10 09:50:46;;;;;;;15.15;13.85;;;;;;;37.35;66.83;100703.41;5382521;26;68069;-36
2024/04/10 09:53:19;;;;;;;18.80;12.90;;;;;;;37.31;66.11;100713.25;5388058;26;64164;-36
2024/04/10 09:55:53;;;;;;;14.63;12.98;;;;;;;37.33;67.36;100715.69;5395770;26;68895;-35
2024/04/10 09:58:24;;;;;;;16.38;13.52;;;;;;;37.33;67.41;100722.03;5389871;26;65126;-35
2024/04/10 10:00:55;;;;;;;14.88;13.48;;;;;;;37.24;67.69;100723.59;5385253;26;70210;-35
2024/04/10 10:03:26;;;;;;;17.08;13.45;;;;;;;37.24;66.91;100718.13;5373189;26;64452;-34
2024/04/10 10:06:03;;;;;;;14.63;13.43;;;;;;;37.19;66.86;100720.84;5352439;26;68478;-35
2024/04/10 10:08:35;;;;;;;15.50;13.65;;;;;;;37.18;67.92;100713.75;5403541;26;65151;-37
2024/04/10 10:11:06;;;;;;;18.65;14.40;;;;;;;37.15;67.35;100722.47;5370478;26;68621;-35
2024/04/10 10:13:42;;;;;;;14.45;13.20;;;;;;;37.10;68.14;100720.53;5384447;26;64910;-35
2024/04/10 10:16:24;;;;;;;15.02;13.60;;;;;;;37.07;67.66;100729.28;5384741;26;68736;-37
2024/04/10 10:19:04;;;;;;;17.35;14.55;;;;;;;37.11;67.86;100724.09;5368262;26;65050;-34
2024/04/10 10:21:35;;;;;;;16.35;14.85;;;;;;;37.05;68.25;100725.16;5385033;26;68580;-35
2024/04/10 10:24:07;;;;;;;15.43;14.25;;;;;;;37.05;67.85;100736.09;5386535;26;65006;-34
2024/04/10 10:26:38;;;;;;;17.08;15.35;;;;;;;37.03;67.79;100732.84;5386574;26;69237;-34
2024/04/10 10:29:09;;;;;;;15.85;14.43;;;;;;;37.00;68.81;100736.03;5375065;26;65394;-35
2024/04/10 10:31:45;;;;;;;15.68;14.10;;;;;;;36.99;67.94;100748.09;5391215;26;67772;-35
2024/04/10 10:34:23;;;;;;;15.32;13.77;;;;;;;36.82;68.43;100716.28;5386462;26;64165;-34
2024/04/10 10:36:54;;;;;;;15.48;14.23;;;;;;;36.98;68.18;100754.66;5385442;26;68667;-35
2024/04/10 10:39:27;;;;;;;16.27;14.25;;;;;;;36.97;68.19;100756.56;5382118;26;64446;-35
2024/04/10 10:42:05;;;;;;;15.68;14.23;;;;;;;36.90;69.17;100748.56;5375552;26;69032;-35
2024/04/10 10:44:36;;;;;;;15.40;13.90;;;;;;;36.90;68.60;100745.84;5370559;26;64945;-35
2024/04/10 10:47:07;;;;;;;15.50;14.10;;;;;;;36.88;69.10;100736.25;5385677;26;69121;-35
2024/04/10 10:49:40;;;;;;;15.57;14.07;;;;;;;36.89;68.77;100743.41;5384999;26;64320;-36
2024/04/10 10:52:11;;;;;;;15.77;14.30;;;;;;;36.85;68.78;100736.78;5385815;26;68152;-35
2024/04/10 10:54:42;;;;;;;15.60;14.17;;;;;;;36.85;68.72;100740.34;5385709;26;65331;-35
2024/04/10 10:57:17;;;;;;;15.35;13.85;;;;;;;36.80;68.98;100745.78;5381839;26;68485;-34
2024/04/10 10:59:48;;;;;;;23.95;14.68;;;;;;;36.78;69.36;100753.44;5385033;26;64001;-34
2024/04/10 11:02:20;;;;;;;16.83;14.85;;;;;;;36.78;69.20;100753.44;5385692;26;67702;-35
2024/04/10 11:04:52;;;;;;;14.48;12.98;;;;;;;36.72;69.52;100748.19;5392890;26;65371;-36
2024/04/10 11:07:23;;;;;;;;;;;;;;;36.62;69.84;100759.88;5385677;26;67716;-35
2024/04/10 11:10:04;;;;;;;15.20;13.45;;;;;;;36.62;69.21;100754.44;5384870;26;64729;-35
2024/04/10 11:12:37;;;;;;;39.67;14.97;;;;;;;36.66;68.75;100761.00;5386379;26;68547;-36
2024/04/10 11:15:10;;;;;;;30.33;14.88;;;;;;;36.66;68.58;100766.47;5350248;26;64701;-35
2024/04/10 11:17:41;;;;;;;30.23;14.27;;;;;;;36.57;68.92;100768.03;5371748;26;69419;-33
2024/04/10 11:20:16;;;;;;;20.13;13.00;;;;;;;36.51;68.82;100766.34;5375330;26;65470;-34
2024/04/10 11:22:46;;;;;;;;;;;;;;;36.54;68.14;100776.78;5388596;26;67805;-34
2024/04/10 11:25:17;;;;;;;34.38;13.18;;;;;;;36.57;68.25;100773.50;5384026;26;64979;-35
2024/04/10 11:27:49;;;;;;;34.78;13.45;;;;;;;36.47;67.54;100786.00;5384647;26;67774;-36
2024/04/10 11:30:31;;;;;;;21.45;11.82;;;;;;;36.43;66.92;100779.38;5383478;26;64246;-34
2024/04/10 11:33:07;;;;;;;16.58;11.75;;;;;;;36.36;66.61;100791.59;5385044;26;70709;-34
2024/04/10 11:35:39;;;;;;;14.85;11.30;;;;;;;36.29;66.52;100793.75;5382058;26;64151;-34
2024/04/10 11:38:10;;;;;;;14.88;10.05;;;;;;;36.31;66.82;100802.50;5396571;26;68407;-35
2024/04/10 11:40:43;;;;;;;10.73;9.48;;;;;;;36.22;66.90;100800.25;5394297;26;65038;-35
2024/04/10 11:43:42;;;;;;;11.73;9.18;;;;;;;36.09;66.21;100794.38;5398031;26;67859;-35